Time;durP1;ratioP1;P1;durP2;ratioP2;P2;SDS_P1;SDS_P2;PMS_P1;PMS_P2;Temp;Humidity;BMP_temperature;BMP_pressure;BME280_temperature;BME280_humidity;BME280_pressure;Samples;Min_cycle;Max_cycle;Signal;HPM_P1;HPM_P2
2022/03/19 00:01:47;;;;;;;;;;;;;;;11.21;38.67;101846.28;4488750;31;35463;-63
2022/03/19 00:04:16;;;;;;;;;;;;;;;11.27;38.65;101846.87;4486409;31;36859;-64
2022/03/19 00:06:44;;;;;;;;;;;;;;;11.50;37.78;101843.16;4483265;31;33781;-63
2022/03/19 00:09:12;;;;;;;;;;;;;;;11.52;37.77;101841.25;4487169;31;35426;-62
2022/03/19 00:11:40;;;;;;;;;;;;;;;11.66;37.49;101843.31;4485131;31;35539;-64
2022/03/19 00:14:12;;;;;;;;;;;;;;;11.98;36.45;101835.62;4485532;31;34577;-63
2022/03/19 00:16:39;;;;;;;;;;;;;;;11.46;38.23;101835.28;4486928;31;32615;-62
2022/03/19 00:19:08;;;;;;;;;;;;;;;11.60;38.04;101827.50;4493234;31;35289;-63
2022/03/19 00:21:38;;;;;;;;;;;;;;;11.54;38.22;101838.50;4495426;31;34873;-63
2022/03/19 00:24:06;;;;;;;;;;;;;;;11.80;37.47;101837.31;4483290;31;32825;-62
2022/03/19 00:26:34;;;;;;;;;;;;;;;12.00;36.86;101829.22;4485219;31;33230;-63
2022/03/19 00:29:02;;;;;;;;;;;;;;;11.83;37.41;101829.13;4490386;31;33670;-63
2022/03/19 00:31:31;;;;;;;;;;;;;;;11.85;37.55;101830.81;4487215;31;35538;-62
2022/03/19 00:33:59;;;;;;;;;;;;;;;12.06;36.96;101828.06;4485177;31;34207;-64
2022/03/19 00:36:27;;;;;;;;;;;;;;;11.92;37.35;101823.34;4485485;32;33204;-64
2022/03/19 00:38:55;;;;;;;;;;;;;;;11.91;37.29;101820.72;4491852;31;33023;-63
2022/03/19 00:41:23;;;;;;;;;;;;;;;11.76;37.77;101824.97;4487359;31;35385;-63
2022/03/19 00:43:51;;;;;;;;;;;;;;;11.95;37.14;101823.22;4498483;31;33152;-65
2022/03/19 00:46:19;;;;;;;;;;;;;;;11.99;37.11;101823.94;4491443;31;34493;-62
2022/03/19 00:48:48;;;;;;;;;;;;;;;11.95;37.04;101822.34;4500547;31;34275;-63
2022/03/19 00:51:15;;;;;;;;;;;;;;;11.96;37.07;101821.38;4489834;31;33894;-64
2022/03/19 00:53:43;;;;;;;;;;;;;;;11.87;37.32;101814.62;4485928;31;33058;-63
2022/03/19 00:56:11;;;;;;;;;;;;;;;11.85;37.32;101811.19;4485969;31;32091;-64
2022/03/19 00:58:38;;;;;;;;;;;;;;;11.79;37.40;101804.25;4487010;31;34071;-71
2022/03/19 01:01:06;;;;;;;;;;;;;;;11.89;37.28;101815.44;4492888;31;33998;-64
2022/03/19 01:03:33;;;;;;;;;;;;;;;11.95;37.21;101809.78;4492970;31;32716;-63
2022/03/19 01:06:01;;;;;;;;;;;;;;;11.87;37.49;101802.09;4487314;31;32277;-63
2022/03/19 01:08:28;;;;;;;;;;;;;;;11.63;38.28;101806.78;4487886;31;33199;-64
2022/03/19 01:10:57;;;;;;;;;;;;;;;11.76;37.96;101807.06;4489339;31;34352;-64
2022/03/19 01:13:25;;;;;;;;;;;;;;;11.89;37.60;101802.91;4496401;31;33974;-63
2022/03/19 01:15:52;;;;;;;;;;;;;;;11.65;38.14;101794.16;4499518;31;32107;-65
2022/03/19 01:18:20;;;;;;;;;;;;;;;11.83;37.83;101795.09;4486930;31;34100;-63
2022/03/19 01:20:48;;;;;;;;;;;;;;;11.78;38.13;101801.62;4492381;31;34165;-64
2022/03/19 01:23:15;;;;;;;;;;;;;;;11.32;38.92;101798.38;4491548;31;34420;-64
2022/03/19 01:25:43;;;;;;;;;;;;;;;11.64;38.33;101804.97;4488191;31;31807;-66
2022/03/19 01:28:11;;;;;;;;;;;;;;;11.39;39.19;101797.16;4488288;31;34700;-66
2022/03/19 01:30:38;;;;;;;;;;;;;;;11.50;38.91;101797.56;4484548;31;34237;-64
2022/03/19 01:33:06;;;;;;;;;;;;;;;11.66;38.42;101795.91;4486532;31;34047;-65
2022/03/19 01:35:33;;;;;;;;;;;;;;;11.56;38.71;101796.41;4485327;31;33488;-64
2022/03/19 01:38:04;;;;;;;;;;;;;;;11.72;38.26;101783.13;4487089;31;35300;-65
2022/03/19 01:40:33;;;;;;;;;;;;;;;11.88;37.52;101781.53;4494275;31;33081;-64
2022/03/19 01:43:02;;;;;;;;;;;;;;;11.69;38.17;101778.81;4491540;31;33025;-63
2022/03/19 01:45:29;;;;;;;;;;;;;;;11.84;37.90;101775.41;4500735;31;33238;-64
2022/03/19 01:47:57;;;;;;;;;;;;;;;11.92;37.69;101771.50;4494894;31;34038;-65
2022/03/19 01:50:25;;;;;;;;;;;;;;;11.84;37.75;101771.81;4493603;31;35521;-66
2022/03/19 01:52:53;;;;;;;;;;;;;;;11.77;38.04;101775.75;4486643;31;34208;-64
2022/03/19 01:55:22;;;;;;;;;;;;;;;11.89;37.30;101767.16;4491599;31;32197;-64
2022/03/19 01:57:50;;;;;;;;;;;;;;;11.88;37.45;101765.41;4495023;31;34372;-64
2022/03/19 02:00:19;;;;;;;;;;;;;;;11.81;37.60;101766.59;4484590;31;35362;-63
2022/03/19 02:02:47;;;;;;;;;;;;;;;11.77;37.40;101763.19;4484889;31;34138;-64
2022/03/19 02:05:15;;;;;;;;;;;;;;;11.52;38.18;101759.94;4499865;31;33378;-64
2022/03/19 02:07:43;;;;;;;;;;;;;;;11.45;38.32;101758.47;4491664;31;32871;-64
2022/03/19 02:10:11;;;;;;;;;;;;;;;11.35;38.68;101758.03;4486841;31;34819;-64
2022/03/19 02:12:39;;;;;;;;;;;;;;;11.58;37.62;101759.66;4489587;31;35369;-64
2022/03/19 02:15:07;;;;;;;;;;;;;;;11.52;37.69;101750.06;4486443;31;34382;-64
2022/03/19 02:17:35;;;;;;;;;;;;;;;11.35;38.27;101748.19;4478391;31;35127;-65
2022/03/19 02:20:03;;;;;;;;;;;;;;;11.41;37.98;101753.25;4490900;31;34050;-63
2022/03/19 02:22:31;;;;;;;;;;;;;;;11.04;38.82;101753.19;4487782;31;33889;-64
2022/03/19 02:27:45;;;;;;;;;;;;;;;10.81;39.49;101748.84;4492515;31;32941;-64
2022/03/19 02:30:14;;;;;;;;;;;;;;;11.07;38.94;101753.91;4487371;31;33892;-64
2022/03/19 02:32:43;;;;;;;;;;;;;;;11.20;38.57;101756.91;4485319;31;33037;-64
2022/03/19 02:35:11;;;;;;;;;;;;;;;11.30;38.25;101749.31;4483905;31;34497;-63
2022/03/19 02:37:40;;;;;;;;;;;;;;;11.02;38.77;101739.88;4470559;31;35095;-63
2022/03/19 02:40:11;;;;;;;;;;;;;;;10.70;39.42;101741.31;4486152;31;34254;-64
2022/03/19 02:42:50;;;;;;;;;;;;;;;10.31;40.84;101747.41;4485147;31;33103;-65
2022/03/19 02:45:21;;;;;;;;;;;;;;;10.66;39.70;101740.56;4486713;31;33894;-64
2022/03/19 02:47:59;;;;;;;;;;;;;;;10.72;39.50;101745.66;4487537;31;34200;-65
2022/03/19 02:50:33;;;;;;;;;;;;;;;10.80;39.30;101742.63;4487200;31;34519;-63
2022/03/19 02:53:12;;;;;;;;;;;;;;;10.81;39.17;101736.31;4486772;31;33881;-65
2022/03/19 02:55:43;;;;;;;;;;;;;;;10.83;38.99;101733.59;4493365;31;33105;-65
2022/03/19 02:58:12;;;;;;;;;;;;;;;10.69;39.22;101731.53;4488984;31;34325;-66
2022/03/19 03:00:41;;;;;;;;;;;;;;;10.62;39.38;101738.94;4482356;31;34286;-65
2022/03/19 03:03:10;;;;;;;;;;;;;;;10.63;39.29;101734.47;4482992;31;33405;-67
2022/03/19 03:05:40;;;;;;;;;;;;;;;10.48;39.33;101734.19;4487004;31;34160;-66
2022/03/19 03:08:10;;;;;;;;;;;;;;;10.62;38.91;101732.72;4487997;31;33723;-66
2022/03/19 03:10:39;;;;;;;;;;;;;;;10.60;38.95;101729.25;4496489;31;33039;-66
2022/03/19 03:13:08;;;;;;;;;;;;;;;10.51;39.30;101740.34;4488154;31;34073;-68
2022/03/19 03:15:37;;;;;;;;;;;;;;;10.38;39.73;101726.62;4486027;31;33229;-66
2022/03/19 03:18:05;;;;;;;;;;;;;;;10.08;40.47;101731.41;4484134;31;33145;-66
2022/03/19 03:20:33;;;;;;;;;;;;;;;10.12;40.44;101730.34;4487299;31;34252;-65
2022/03/19 03:23:03;;;;;;;;;;;;;;;10.25;40.13;101736.94;4490721;31;34735;-68
2022/03/19 03:25:33;;;;;;;;;;;;;;;10.24;40.07;101732.50;4486358;31;32920;-65
2022/03/19 03:28:05;;;;;;;;;;;;;;;10.03;40.53;101731.59;4492755;31;33099;-66
2022/03/19 03:30:36;;;;;;;;;;;;;;;10.00;40.54;101731.72;4481522;31;34295;-67
2022/03/19 03:33:05;;;;;;;;;;;;;;;10.08;40.24;101736.75;4482834;31;34067;-65
2022/03/19 03:35:33;;;;;;;;;;;;;;;10.08;40.23;101729.63;4485330;31;32028;-67
2022/03/19 03:38:02;;;;;;;;;;;;;;;10.02;40.30;101729.88;4486715;31;35029;-66
2022/03/19 03:40:32;;;;;;;;;;;;;;;10.01;40.44;101730.78;4482388;31;33981;-68
2022/03/19 03:43:00;;;;;;;;;;;;;;;9.92;40.59;101729.38;4482758;31;34993;-68
2022/03/19 03:45:30;;;;;;;;;;;;;;;9.77;40.86;101724.63;4490156;31;31990;-67
2022/03/19 03:47:59;;;;;;;;;;;;;;;9.93;40.56;101723.06;4488936;31;34100;-66
2022/03/19 03:50:28;;;;;;;;;;;;;;;10.07;40.20;101727.84;4486334;31;34433;-66
2022/03/19 03:52:57;;;;;;;;;;;;;;;9.98;40.34;101731.81;4477056;31;33687;-66
2022/03/19 03:55:26;;;;;;;;;;;;;;;9.92;40.81;101726.69;4467796;32;32995;-65
2022/03/19 03:57:54;;;;;;;;;;;;;;;9.95;40.53;101728.34;4486811;31;33953;-66
2022/03/19 04:00:29;;;;;;;;;;;;;;;10.00;40.40;101724.56;4487904;31;35443;-66
2022/03/19 04:02:59;;;;;;;;;;;;;;;10.03;40.38;101726.25;4487193;31;33939;-68
2022/03/19 04:05:28;;;;;;;;;;;;;;;10.03;40.43;101720.91;4487865;31;33113;-68
2022/03/19 04:07:57;;;;;;;;;;;;;;;10.00;40.47;101719.22;4489337;31;34319;-66
2022/03/19 04:10:27;;;;;;;;;;;;;;;9.98;40.66;101728.22;4492050;31;34211;-68
2022/03/19 04:13:01;;;;;;;;;;;;;;;10.03;40.56;101727.12;4487107;31;33386;-66
2022/03/19 04:15:38;;;;;;;;;;;;;;;10.03;40.34;101721.75;4495229;31;33160;-66
2022/03/19 04:18:06;;;;;;;;;;;;;;;10.05;40.30;101716.38;4485923;31;33805;-66
2022/03/19 04:20:35;;;;;;;;;;;;;;;10.02;40.44;101706.66;4484415;31;34448;-67
2022/03/19 04:23:03;;;;;;;;;;;;;;;10.05;40.48;101713.69;4488921;31;33855;-66
2022/03/19 04:25:31;;;;;;;;;;;;;;;10.00;40.60;101716.53;4489480;31;32971;-67
2022/03/19 04:28:01;;;;;;;;;;;;;;;10.02;40.73;101713.81;4482366;31;34308;-67
2022/03/19 04:30:30;;;;;;;;;;;;;;;10.10;40.52;101708.13;4488796;31;33018;-66
2022/03/19 04:32:59;;;;;;;;;;;;;;;10.06;40.50;101707.41;4488308;31;33885;-65
2022/03/19 04:38:16;;;;;;;;;;;;;;;10.06;41.03;101714.56;4484309;31;33555;-65
2022/03/19 04:40:46;;;;;;;;;;;;;;;10.23;40.47;101712.03;4487414;31;33053;-65
2022/03/19 04:43:14;;;;;;;;;;;;;;;10.13;40.79;101710.69;4484800;31;34198;-67
2022/03/19 04:45:43;;;;;;;;;;;;;;;10.33;40.39;101707.19;4489467;31;33323;-66
2022/03/19 04:48:11;;;;;;;;;;;;;;;10.49;39.96;101711.81;4475439;31;35297;-65
2022/03/19 04:50:41;;;;;;;;;;;;;;;10.48;40.11;101709.22;4484542;31;33919;-66
2022/03/19 04:53:10;;;;;;;;;;;;;;;9.84;41.48;101719.91;4489040;31;34184;-68
2022/03/19 04:55:39;;;;;;;;;;;;;;;10.35;40.24;101714.22;4488341;31;33357;-66
2022/03/19 04:58:07;;;;;;;;;;;;;;;10.34;40.07;101720.53;4485078;31;34040;-66
2022/03/19 05:00:38;;;;;;;;;;;;;;;10.53;39.57;101722.41;4484750;31;34139;-67
2022/03/19 05:03:11;;;;;;;;;;;;;;;10.34;40.27;101725.00;4482001;31;33388;-69
2022/03/19 05:05:40;;;;;;;;;;;;;;;10.27;40.68;101732.41;4484620;31;33528;-67
2022/03/19 05:08:09;;;;;;;;;;;;;;;10.20;41.11;101731.75;4486267;31;33431;-67
2022/03/19 05:13:25;;;;;;;;;;;;;;;10.53;40.09;101727.75;4482674;31;34211;-67
2022/03/19 05:15:54;;;;;;;;;;;;;;;10.51;40.25;101722.47;4489857;31;33125;-65
2022/03/19 05:18:24;;;;;;;;;;;;;;;10.45;40.57;101720.06;4492983;31;35266;-65
2022/03/19 05:20:55;;;;;;;;;;;;;;;10.43;40.72;101728.16;4481211;31;33640;-67
2022/03/19 05:23:24;;;;;;;;;;;;;;;10.56;40.51;101724.94;4484921;31;32433;-65
2022/03/19 05:25:54;;;;;;;;;;;;;;;10.67;40.15;101720.88;4482137;32;32494;-65
2022/03/19 05:28:22;;;;;;;;;;;;;;;10.19;41.66;101726.50;4484334;31;34356;-65
2022/03/19 05:30:54;;;;;;;;;;;;;;;10.59;40.79;101731.03;4481786;31;35531;-66
2022/03/19 05:36:11;;;;;;;;;;;;;;;10.85;40.16;101727.25;4461514;32;33324;-65
2022/03/19 05:38:41;;;;;;;;;;;;;;;10.65;40.29;101721.87;4490415;31;35012;-69
2022/03/19 05:41:10;;;;;;;;;;;;;;;10.96;39.82;101718.72;4484195;31;34696;-68
2022/03/19 05:43:39;;;;;;;;;;;;;;;10.76;40.58;101722.28;4485185;31;34902;-65
2022/03/19 05:46:09;;;;;;;;;;;;;;;10.80;40.54;101723.00;4489822;31;32120;-65
2022/03/19 05:48:39;;;;;;;;;;;;;;;10.65;40.83;101717.38;4484849;31;34840;-65
2022/03/19 05:51:07;;;;;;;;;;;;;;;10.77;40.65;101715.97;4485949;31;34964;-66
2022/03/19 05:53:37;;;;;;;;;;;;;;;10.27;41.60;101724.38;4484503;31;35152;-66
2022/03/19 05:56:05;;;;;;;;;;;;;;;9.53;43.28;101726.44;4490521;31;34130;-66
2022/03/19 05:58:34;;;;;;;;;;;;;;;10.21;42.14;101725.50;4493309;31;34258;-69
2022/03/19 06:01:02;;;;;;;;;;;;;;;10.20;42.12;101722.88;4491800;31;33961;-65
2022/03/19 06:03:31;;;;;;;;;;;;;;;10.54;41.46;101726.84;4475999;31;33826;-70
2022/03/19 06:05:59;;;;;;;;;;;;;;;10.67;41.03;101730.72;4497380;31;31986;-67
2022/03/19 06:08:27;;;;;;;;;;;;;;;10.48;41.51;101733.31;4486391;31;35238;-67
2022/03/19 06:10:56;;;;;;;;;;;;;;;10.85;40.99;101732.59;4492611;31;34375;-67
2022/03/19 06:13:26;;;;;;;;;;;;;;;10.85;40.76;101737.97;4494802;31;33921;-70
2022/03/19 06:15:54;;;;;;;;;;;;;;;10.68;41.19;101738.66;4485392;31;34030;-67
2022/03/19 06:18:22;;;;;;;;;;;;;;;10.85;40.69;101734.38;4486083;31;32835;-72
2022/03/19 06:20:50;;;;;;;;;;;;;;;10.92;40.45;101738.56;4490157;31;34389;-67
2022/03/19 06:23:19;;;;;;;;;;;;;;;10.96;40.06;101738.34;4485942;31;34206;-68
2022/03/19 06:25:48;;;;;;;;;;;;;;;10.61;40.74;101736.34;4487074;31;33344;-67
2022/03/19 06:28:17;;;;;;;;;;;;;;;10.71;40.71;101735.00;4497806;31;35066;-67
2022/03/19 06:30:45;;;;;;;;;;;;;;;10.76;40.18;101738.34;4487582;31;33996;-67
2022/03/19 06:33:21;;;;;;;;;;;;;;;10.40;40.51;101740.78;4483367;31;33589;-66
2022/03/19 06:38:44;;;;;;;;;;;;;;;10.03;40.53;101736.94;4488031;31;33928;-66
2022/03/19 06:41:13;;;;;;;;;;;;;;;9.64;41.02;101739.41;4487614;31;34287;-68
2022/03/19 06:43:43;;;;;;;;;;;;;;;9.61;40.70;101739.53;4486061;31;34064;-66
2022/03/19 06:46:12;;;;;;;;;;;;;;;9.70;40.71;101739.19;4488294;31;32827;-67
2022/03/19 06:48:46;;;;;;;;;;;;;;;10.11;39.42;101737.53;4490455;31;35057;-65
2022/03/19 06:51:17;;;;;;;;;;;;;;;8.87;42.00;101747.63;4479900;31;34293;-67
2022/03/19 06:53:46;;;;;;;;;;;;;;;9.02;41.77;101747.09;4485791;31;35209;-66
2022/03/19 06:56:15;;;;;;;;;;;;;;;9.77;40.54;101740.69;4488993;31;33358;-66
2022/03/19 06:58:44;;;;;;;;;;;;;;;9.81;40.51;101742.28;4486480;31;33192;-65
2022/03/19 07:01:16;;;;;;;;;;;;;;;9.29;41.91;101745.19;4483726;31;34389;-66
2022/03/19 07:03:46;;;;;;;;;;;;;;;9.68;40.36;101741.03;4488289;31;35146;-65
2022/03/19 07:06:15;;;;;;;;;;;;;;;9.26;41.28;101739.09;4496854;31;33539;-65
2022/03/19 07:09:04;;;;;;;;;;;;;;;8.48;42.90;101757.91;4484348;31;34025;-65
2022/03/19 07:11:35;;;;;;;;;;;;;;;8.81;42.74;101747.84;4485858;31;34112;-66
2022/03/19 07:14:05;;;;;;;;;;;;;;;8.46;43.30;101757.09;4488425;31;34442;-65
2022/03/19 07:16:35;;;;;;;;;;;;;;;8.98;42.66;101748.09;4483557;31;33648;-66
2022/03/19 07:19:04;;;;;;;;;;;;;;;9.07;40.89;101753.13;4496798;31;33939;-67
2022/03/19 07:21:36;;;;;;;;;;;;;;;9.46;40.67;101739.19;4488449;31;34446;-64
2022/03/19 07:24:07;;;;;;;;;;;;;;;9.42;40.22;101750.06;4483445;31;33014;-65
2022/03/19 07:26:36;;;;;;;;;;;;;;;9.59;39.09;101746.75;4495330;31;34251;-64
2022/03/19 07:29:06;;;;;;;;;;;;;;;9.93;36.91;101752.50;4488799;31;34271;-68
2022/03/19 07:31:34;;;;;;;;;;;;;;;10.16;36.76;101748.03;4483775;31;33108;-66
2022/03/19 07:34:03;;;;;;;;;;;;;;;10.42;37.69;101750.50;4490320;31;34331;-65
2022/03/19 07:36:32;;;;;;;;;;;;;;;9.77;38.07;101756.72;4494869;31;34330;-66
2022/03/19 07:39:02;;;;;;;;;;;;;;;9.45;38.34;101750.81;4490911;31;34023;-65
2022/03/19 07:41:48;;;;;;;;;;;;;;;9.59;38.74;101747.59;4451492;31;1059622;-66
2022/03/19 07:44:16;;;;;;;;;;;;;;;10.00;37.48;101751.31;4490882;31;32913;-66
2022/03/19 07:46:45;;;;;;;;;;;;;;;9.57;38.17;101750.34;4491373;31;32709;-66
2022/03/19 07:49:13;;;;;;;;;;;;;;;10.10;36.99;101753.62;4495429;31;35647;-66
2022/03/19 07:51:42;;;;;;;;;;;;;;;9.72;38.03;101753.34;4482524;31;33870;-65
2022/03/19 07:54:11;;;;;;;;;;;;;;;9.36;38.15;101755.63;4490663;31;34307;-64
2022/03/19 07:56:40;;;;;;;;;;;;;;;9.82;37.31;101757.38;4485817;31;33191;-64
2022/03/19 07:59:09;;;;;;;;;;;;;;;10.71;35.67;101761.78;4485884;31;35182;-65
2022/03/19 08:01:39;;;;;;;;;;;;;;;10.80;34.85;101760.53;4487868;31;34357;-64
2022/03/19 08:04:10;;;;;;;;;;;;;;;11.64;34.36;101759.34;4484962;31;34031;-64
2022/03/19 08:06:38;;;;;;;;;;;;;;;11.08;34.04;101760.19;4488164;31;32981;-64
2022/03/19 08:09:06;;;;;;;;;;;;;;;11.89;33.62;101761.78;4482101;31;32831;-64
2022/03/19 08:11:35;;;;;;;;;;;;;;;12.26;32.91;101763.53;4482456;31;34304;-64
2022/03/19 08:14:04;;;;;;;;;;;;;;;12.22;32.76;101763.75;4487232;31;32646;-64
2022/03/19 08:16:32;;;;;;;;;;;;;;;11.73;33.17;101764.28;4486510;31;32053;-64
2022/03/19 08:19:02;;;;;;;;;;;;;;;11.26;33.53;101766.50;4468916;31;34850;-65
2022/03/19 08:21:31;;;;;;;;;;;;;;;11.29;33.75;101761.84;4486799;31;35500;-64
2022/03/19 08:23:59;;;;;;;;;;;;;;;11.88;33.33;101765.41;4490359;31;32431;-64
2022/03/19 08:26:27;;;;;;;;;;;;;;;11.75;33.53;101762.41;4482474;31;32914;-64
2022/03/19 08:28:56;;;;;;;;;;;;;;;10.19;36.51;101764.81;4482781;31;32771;-67
2022/03/19 08:31:25;;;;;;;;;;;;;;;9.88;36.76;101770.53;4483714;31;33185;-65
2022/03/19 08:33:55;;;;;;;;;;;;;;;9.72;37.30;101758.69;4481774;31;33761;-65
2022/03/19 08:36:24;;;;;;;;;;;;;;;10.53;36.42;101759.88;4490488;31;33863;-64
2022/03/19 08:41:42;;;;;;;;;;;;;;;10.76;35.57;101762.47;4488401;31;33167;-65
2022/03/19 08:44:13;;;;;;;;;;;;;;;10.41;36.32;101762.16;4489758;31;34098;-64
2022/03/19 08:46:45;;;;;;;;;;;;;;;10.95;34.93;101771.44;4489410;31;34230;-64
2022/03/19 08:49:16;;;;;;;;;;;;;;;11.49;33.86;101766.31;4493466;31;34144;-67
2022/03/19 08:51:46;;;;;;;;;;;;;;;10.55;36.12;101766.91;4498316;31;33159;-64
2022/03/19 08:54:17;;;;;;;;;;;;;;;11.08;34.48;101762.84;4486929;31;34230;-64
2022/03/19 08:56:49;;;;;;;;;;;;;;;11.13;34.83;101764.38;4483191;31;32892;-66
2022/03/19 08:59:17;;;;;;;;;;;;;;;10.57;35.53;101762.37;4491846;31;33888;-65
2022/03/19 09:01:47;;;;;;;;;;;;;;;10.49;35.86;101761.81;4486913;31;34236;-64
2022/03/19 09:04:19;;;;;;;;;;;;;;;10.86;35.24;101761.12;4483717;31;34320;-66
2022/03/19 09:06:52;;;;;;;;;;;;;;;10.66;35.11;101758.44;4484127;31;33298;-64
2022/03/19 09:09:22;;;;;;;;;;;;;;;10.95;34.86;101757.16;4495615;31;34576;-64
2022/03/19 09:11:55;;;;;;;;;;;;;;;10.12;36.10;101759.78;4486928;31;34209;-64
2022/03/19 09:14:29;;;;;;;;;;;;;;;9.98;36.40;101766.56;4484593;31;34249;-64
2022/03/19 09:17:00;;;;;;;;;;;;;;;9.81;37.16;101763.69;4486571;31;32106;-64
2022/03/19 09:19:33;;;;;;;;;;;;;;;10.55;35.79;101761.56;4484362;31;34289;-65
2022/03/19 09:22:02;;;;;;;;;;;;;;;10.34;35.57;101758.00;4485295;31;34012;-65
2022/03/19 09:24:33;;;;;;;;;;;;;;;10.47;35.75;101759.22;4489437;31;34181;-65
2022/03/19 09:27:06;;;;;;;;;;;;;;;11.10;33.96;101751.09;4492455;31;33250;-64
2022/03/19 09:29:36;;;;;;;;;;;;;;;10.55;34.94;101756.22;4497954;31;34550;-64
2022/03/19 09:32:13;;;;;;;;;;;;;;;9.82;36.00;101757.38;4490905;31;34023;-64
2022/03/19 09:34:47;;;;;;;;;;;;;;;10.20;35.11;101758.53;4483925;32;34197;-65
2022/03/19 09:37:17;;;;;;;;;;;;;;;10.58;34.28;101761.44;4483784;31;33150;-65
2022/03/19 09:39:50;;;;;;;;;;;;;;;10.21;35.22;101754.06;4488833;31;33791;-65
2022/03/19 09:42:20;;;;;;;;;;;;;;;10.71;33.74;101757.28;4489319;31;33546;-65
2022/03/19 09:44:53;;;;;;;;;;;;;;;9.95;34.87;101763.13;4483464;31;33289;-64
2022/03/19 09:47:27;;;;;;;;;;;;;;;9.87;35.02;101751.87;4483657;31;31945;-65
2022/03/19 09:50:00;;;;;;;;;;;;;;;10.69;34.70;101752.97;4496137;31;34005;-65
2022/03/19 09:52:31;;;;;;;;;;;;;;;10.92;34.08;101758.16;4482974;31;33092;-65
2022/03/19 09:55:03;;;;;;;;;;;;;;;9.68;34.98;101760.62;4470158;32;34448;-64
2022/03/19 09:57:37;;;;;;;;;;;;;;;9.77;34.89;101759.41;4483417;31;33444;-65
2022/03/19 10:00:10;;;;;;;;;;;;;;;11.20;33.97;101756.91;4492373;31;33072;-64
2022/03/19 10:02:53;;;;;;;;;;;;;;;11.25;32.56;101752.22;4490069;31;32987;-64
2022/03/19 10:11:02;;;;;;;;;;;;;;;10.26;33.83;101754.75;4484951;31;33996;-65
2022/03/19 10:13:31;;;;;;;;;;;;;;;11.12;32.21;101751.91;4490556;31;34557;-64
2022/03/19 10:16:01;;;;;;;;;;;;;;;10.86;32.70;101750.41;4493836;31;33081;-64
2022/03/19 10:18:31;;;;;;;;;;;;;;;11.00;33.97;101746.22;4493219;31;33515;-65
2022/03/19 10:21:13;;;;;;;;;;;;;;;11.03;34.00;101741.59;4490863;31;34705;-64
2022/03/19 10:23:48;;;;;;;;;;;;;;;11.24;33.80;101739.78;4499087;31;33620;-65
2022/03/19 10:26:23;;;;;;;;;;;;;;;10.32;33.69;101743.81;4494652;31;34174;-65
2022/03/19 10:29:01;;;;;;;;;;;;;;;11.54;32.48;101736.59;4485415;31;33207;-66
2022/03/19 10:31:43;;;;;;;;;;;;;;;12.22;31.28;101734.22;4494052;31;35120;-66
2022/03/19 10:34:16;;;;;;;;;;;;;;;12.40;29.80;101738.69;4487453;31;35181;-67
2022/03/19 10:36:49;;;;;;;;;;;;;;;12.00;30.87;101737.09;4494776;31;33916;-64
2022/03/19 10:39:19;;;;;;;;;;;;;;;10.90;32.55;101729.69;4492868;31;33614;-67
2022/03/19 10:41:50;;;;;;;;;;;;;;;11.65;31.70;101727.12;4489468;31;32983;-65
2022/03/19 10:44:20;;;;;;;;;;;;;;;11.16;32.07;101729.38;4468250;32;35565;-64
2022/03/19 10:46:56;;;;;;;;;;;;;;;11.39;31.72;101724.78;4485038;31;35163;-64
2022/03/19 10:49:31;;;;;;;;;;;;;;;11.86;31.84;101730.59;4483009;31;32252;-65
2022/03/19 10:52:02;;;;;;;;;;;;;;;11.40;32.02;101730.09;4487997;31;33084;-64
2022/03/19 10:54:38;;;;;;;;;;;;;;;12.17;31.19;101725.56;4485501;31;34276;-66
2022/03/19 10:57:11;;;;;;;;;;;;;;;12.80;29.14;101724.03;4485859;31;34082;-64
2022/03/19 10:59:47;;;;;;;;;;;;;;;12.44;29.69;101731.31;4482960;31;34068;-66
2022/03/19 11:02:22;;;;;;;;;;;;;;;12.86;29.69;101719.28;4486689;31;33645;-64
2022/03/19 11:04:56;;;;;;;;;;;;;;;12.98;29.48;101715.97;4481819;31;34425;-65
2022/03/19 11:07:30;;;;;;;;;;;;;;;12.62;29.42;101708.03;4486831;31;31912;-66
2022/03/19 11:10:00;;;;;;;;;;;;;;;12.80;28.93;101699.84;4470545;32;32920;-64
2022/03/19 11:12:28;;;;;;;;;;;;;;;13.18;27.04;101704.13;4488091;31;33415;-65
2022/03/19 11:14:59;;;;;;;;;;;;;;;13.27;26.33;101691.06;4485188;31;35538;-65
2022/03/19 11:17:33;;;;;;;;;;;;;;;13.41;26.89;101694.81;4488125;31;33940;-65
2022/03/19 11:20:14;;;;;;;;;;;;;;;13.62;25.75;101690.94;4472396;32;33229;-65
2022/03/19 11:22:46;;;;;;;;;;;;;;;13.81;24.33;101687.19;4492186;31;35463;-64
2022/03/19 11:25:42;;;;;;;;;;;;;;;13.53;24.89;101675.31;4475234;31;33303;-68
2022/03/19 11:28:14;;;;;;;;;;;;;;;12.38;25.97;101680.63;4485263;31;34901;-65
2022/03/19 11:31:07;;;;;;;;;;;;;;;12.91;25.08;101679.62;4475860;31;33290;-67
2022/03/19 11:33:37;;;;;;;;;;;;;;;13.20;24.78;101669.97;4485486;31;32456;-65
2022/03/19 11:36:10;;;;;;;;;;;;;;;13.25;24.21;101671.47;4494201;31;33975;-64
2022/03/19 11:38:49;;;;;;;;;;;;;;;13.17;25.24;101664.75;4487853;31;34002;-65
2022/03/19 11:41:30;;;;;;;;;;;;;;;13.08;25.09;101663.44;4486703;31;31862;-65
2022/03/19 11:44:19;;;;;;;;;;;;;;;13.44;24.86;101665.06;4491048;31;35381;-65
2022/03/19 11:47:16;;;;;;;;;;;;;;;13.09;25.42;101662.47;4484621;31;33663;-66
2022/03/19 11:50:02;;;;;;;;;;;;;;;12.98;25.84;101667.56;4473143;31;33813;-64
2022/03/19 11:52:31;;;;;;;;;;;;;;;14.07;24.55;101656.94;4484479;31;33125;-64
2022/03/19 11:55:00;;;;;;;;;;;;;;;13.03;24.86;101644.00;4488313;31;35308;-64
2022/03/19 11:57:55;;;;;;;;;;;;;;;13.16;25.27;101645.06;4494836;31;34195;-64
2022/03/19 12:00:27;;;;;;;;;;;;;;;12.73;26.52;101650.06;4487625;31;34020;-65
2022/03/19 12:03:04;;;;;;;;;;;;;;;13.14;26.06;101648.78;4487688;31;33311;-64
2022/03/19 12:05:36;;;;;;;;;;;;;;;13.33;26.60;101640.59;4493200;31;35090;-64
2022/03/19 12:08:08;;;;;;;;;;;;;;;12.42;27.08;101649.97;4487282;31;33179;-63
2022/03/19 12:10:59;;;;;;;;;;;;;;;13.49;26.44;101638.78;4486705;31;34350;-64
2022/03/19 12:13:32;;;;;;;;;;;;;;;13.22;25.70;101642.00;4489728;31;33540;-64
2022/03/19 12:16:06;;;;;;;;;;;;;;;13.67;25.45;101639.53;4490633;31;34101;-63
2022/03/19 12:18:47;;;;;;;;;;;;;;;12.99;26.04;101634.38;4487487;31;34218;-63
2022/03/19 12:21:21;;;;;;;;;;;;;;;14.11;25.95;101630.69;4490279;31;34223;-64
2022/03/19 12:23:57;;;;;;;;;;;;;;;13.25;25.63;101639.19;4488110;31;34053;-63
2022/03/19 12:26:26;;;;;;;;;;;;;;;13.40;24.77;101633.91;4474621;32;35217;-65
2022/03/19 12:28:58;;;;;;;;;;;;;;;14.34;23.64;101627.47;4484313;32;34096;-64
2022/03/19 12:31:31;;;;;;;;;;;;;;;13.43;24.73;101629.22;4486010;31;34254;-63
2022/03/19 12:34:01;;;;;;;;;;;;;;;14.56;23.85;101624.34;4486512;31;33166;-64
2022/03/19 12:36:31;;;;;;;;;;;;;;;14.24;24.39;101626.28;4491902;31;32504;-64
2022/03/19 12:39:01;;;;;;;;;;;;;;;14.69;24.23;101629.84;4489376;31;34246;-63
2022/03/19 12:41:32;;;;;;;;;;;;;;;15.10;23.05;101624.56;4486793;31;33939;-66
2022/03/19 12:44:29;;;;;;;;;;;;;;;14.42;23.45;101627.00;4459373;32;32994;-64
2022/03/19 12:47:03;;;;;;;;;;;;;;;14.60;23.45;101616.94;4458767;32;33661;-64
2022/03/19 12:49:34;;;;;;;;;;;;;;;13.54;24.75;101625.91;4462823;32;34367;-64
2022/03/19 12:52:08;;;;;;;;;;;;;;;12.94;25.01;101629.25;4460267;32;33933;-63
2022/03/19 12:54:45;;;;;;;;;;;;;;;13.46;25.15;101615.59;4458444;32;34120;-66
2022/03/19 12:57:17;;;;;;;;;;;;;;;14.72;23.22;101615.34;4459052;32;33015;-65
2022/03/19 13:00:00;;;;;;;;;;;;;;;14.54;23.66;101617.31;4461699;32;37113;-64
2022/03/19 13:02:31;;;;;;;;;;;;;;;14.04;23.28;101611.34;4459147;32;33816;-64
2022/03/19 13:05:02;;;;;;;;;;;;;;;14.18;23.13;101623.97;4454508;32;33429;-65
2022/03/19 13:07:32;;;;;;;;;;;;;;;13.55;23.77;101618.72;4457581;32;33911;-65
2022/03/19 13:10:14;;;;;;;;;;;;;;;13.34;24.86;101618.12;4459866;32;33167;-65
2022/03/19 13:13:04;;;;;;;;;;;;;;;13.24;24.03;101621.34;4463417;32;33135;-65
2022/03/19 13:15:36;;;;;;;;;;;;;;;13.36;24.47;101617.09;4465870;32;31962;-65
2022/03/19 13:18:08;;;;;;;;;;;;;;;13.50;24.13;101616.28;4462454;32;34610;-65
2022/03/19 13:20:37;;;;;;;;;;;;;;;13.90;23.76;101616.66;4453740;32;34520;-64